createdAt,value
2022-11-22T03:59:13.981Z,1.60
2022-11-22T04:00:14.083Z,1.90
2022-11-22T04:01:16.788Z,1.80
2022-11-22T04:02:14.407Z,1.90
2022-11-22T04:03:14.449Z,2.00
2022-11-22T04:04:14.629Z,1.90
2022-11-22T04:05:14.717Z,1.90
2022-11-22T04:06:14.832Z,2.00
2022-11-22T04:07:14.962Z,1.80
2022-11-22T04:08:15.048Z,1.80
2022-11-22T04:09:15.306Z,1.80
2022-11-22T04:10:17.917Z,1.80
2022-11-22T04:11:16.407Z,1.70
2022-11-22T04:12:15.536Z,1.70
2022-11-22T04:13:15.651Z,1.60
2022-11-22T04:14:15.820Z,1.90
2022-11-22T04:15:15.881Z,1.80
2022-11-22T04:16:16.057Z,1.70
2022-11-22T04:17:16.163Z,2.00
2022-11-22T04:18:16.324Z,1.60
2022-11-22T04:19:16.483Z,1.80
2022-11-22T04:20:16.688Z,1.70
2022-11-22T04:21:16.775Z,1.70
2022-11-22T04:22:16.965Z,1.60
2022-11-22T04:23:17.033Z,1.80
2022-11-22T04:24:17.203Z,1.70
2022-11-22T04:25:17.322Z,1.60
2022-11-22T04:26:17.432Z,1.70
2022-11-22T04:27:17.555Z,1.70
2022-11-22T04:28:17.663Z,1.70
2022-11-22T04:29:17.763Z,1.70
2022-11-22T04:30:20.746Z,1.70
2022-11-22T04:31:18.012Z,1.70
2022-11-22T04:32:18.162Z,1.50
2022-11-22T04:33:18.252Z,1.40
2022-11-22T04:34:18.411Z,1.80
2022-11-22T04:35:18.569Z,1.50
2022-11-22T04:36:18.764Z,1.80
2022-11-22T04:37:18.862Z,1.70
2022-11-22T04:38:18.990Z,1.60
2022-11-22T04:39:19.115Z,1.40
2022-11-22T04:40:19.239Z,1.70
2022-11-22T04:41:19.326Z,1.60
2022-11-22T04:42:19.583Z,1.40
2022-11-22T04:43:19.568Z,1.50
2022-11-22T04:44:19.731Z,1.60
2022-11-22T04:45:19.829Z,1.80
2022-11-22T04:46:19.938Z,1.80
2022-11-22T04:47:20.082Z,1.50
2022-11-22T04:48:20.202Z,1.60
2022-11-22T04:49:20.328Z,1.60
2022-11-22T04:50:20.499Z,1.50
2022-11-22T04:51:20.644Z,1.40
2022-11-22T04:52:21.670Z,1.70
2022-11-22T04:53:20.891Z,1.60
2022-11-22T04:54:20.961Z,1.50
2022-11-22T04:55:21.103Z,1.40
2022-11-22T04:56:21.267Z,1.70
2022-11-22T04:57:21.304Z,1.60
2022-11-22T04:58:21.449Z,1.50
2022-11-22T04:59:21.598Z,1.40
2022-11-22T05:00:21.746Z,1.50
2022-11-22T05:01:21.980Z,1.70
2022-11-22T05:02:22.041Z,1.50
2022-11-22T05:03:22.203Z,1.40
2022-11-22T05:04:22.347Z,1.40
2022-11-22T05:05:22.502Z,1.50
2022-11-22T05:06:22.649Z,1.40
2022-11-22T05:07:22.866Z,1.50
2022-11-22T05:08:22.949Z,1.30
2022-11-22T05:09:23.096Z,1.50
2022-11-22T05:10:26.756Z,1.60
2022-11-22T05:11:23.357Z,1.40
2022-11-22T05:12:23.501Z,1.60
2022-11-22T05:13:23.651Z,1.40
2022-11-22T05:14:23.845Z,1.40
2022-11-22T05:15:23.956Z,1.50
2022-11-22T05:16:24.036Z,1.60
2022-11-22T05:17:24.188Z,1.40
2022-11-22T05:18:24.363Z,1.60
2022-11-22T05:19:24.471Z,1.40
2022-11-22T05:20:24.624Z,1.50
2022-11-22T05:21:24.773Z,1.60
2022-11-22T05:22:24.936Z,1.40
2022-11-22T05:23:25.107Z,1.40
2022-11-22T05:24:25.218Z,1.40
2022-11-22T05:25:25.897Z,1.60
2022-11-22T05:26:25.494Z,1.50
2022-11-22T05:27:25.655Z,1.60
2022-11-22T05:28:25.786Z,1.30
2022-11-22T05:29:25.934Z,1.50
2022-11-22T05:30:26.100Z,1.50
2022-11-22T05:31:26.266Z,1.40
2022-11-22T05:32:26.344Z,1.30
2022-11-22T05:33:26.482Z,1.50
2022-11-22T05:34:26.617Z,1.50
2022-11-22T05:35:26.765Z,1.50
2022-11-22T05:36:26.915Z,1.60
2022-11-22T05:37:27.062Z,1.50
2022-11-22T05:38:27.219Z,1.70
2022-11-22T05:39:27.532Z,1.40
2022-11-22T05:40:27.426Z,1.60
2022-11-22T05:41:27.596Z,1.60
2022-11-22T05:42:27.681Z,1.50
2022-11-22T05:43:28.747Z,1.40
2022-11-22T05:44:27.902Z,1.50
2022-11-22T05:45:28.061Z,1.40
2022-11-22T05:46:28.170Z,1.50
2022-11-22T05:47:28.301Z,1.30
2022-11-22T05:48:29.414Z,1.50
2022-11-22T05:49:28.943Z,1.40
2022-11-22T05:50:28.743Z,1.50
2022-11-22T05:51:33.965Z,1.40
2022-11-22T05:52:31.385Z,1.50
2022-11-22T05:53:30.047Z,1.50
2022-11-22T05:54:29.211Z,1.30
2022-11-22T05:55:29.369Z,1.50
2022-11-22T05:56:29.568Z,1.30
2022-11-22T05:57:29.684Z,1.30
2022-11-22T05:58:29.819Z,1.30
2022-11-22T05:59:30.069Z,1.30
2022-11-22T06:00:31.053Z,1.50
2022-11-22T06:01:30.230Z,1.30
2022-11-22T06:02:30.390Z,1.40
2022-11-22T06:03:30.478Z,1.20
2022-11-22T06:04:30.610Z,1.30
2022-11-22T06:05:30.740Z,1.60
2022-11-22T06:06:30.899Z,1.50
2022-11-22T06:07:31.031Z,1.40
2022-11-22T06:08:31.111Z,1.40
2022-11-22T06:09:31.416Z,1.30
2022-11-22T06:10:31.425Z,1.30
2022-11-22T06:11:31.583Z,1.40
2022-11-22T06:12:31.651Z,1.40
2022-11-22T06:13:31.860Z,1.30
2022-11-22T06:14:31.956Z,1.50
2022-11-22T06:15:33.068Z,1.50
2022-11-22T06:16:32.258Z,1.40
2022-11-22T06:17:32.361Z,1.50
2022-11-22T06:18:32.536Z,1.40
2022-11-22T06:19:32.842Z,1.40
2022-11-22T06:20:32.766Z,1.40
2022-11-22T06:21:32.980Z,1.60
2022-11-22T06:22:33.055Z,1.40
2022-11-22T06:23:33.228Z,1.40
2022-11-22T06:24:33.329Z,1.30
2022-11-22T06:25:33.512Z,1.40
2022-11-22T06:26:39.119Z,1.50
2022-11-22T06:27:34.722Z,1.50
2022-11-22T06:28:33.871Z,1.40
2022-11-22T06:29:33.959Z,1.30
2022-11-22T06:30:34.138Z,1.30
2022-11-22T06:31:34.308Z,1.50
2022-11-22T06:32:34.436Z,1.40
2022-11-22T06:33:34.595Z,1.40
2022-11-22T06:34:34.776Z,1.30
2022-11-22T06:35:34.824Z,1.30
2022-11-22T06:36:35.007Z,1.30
2022-11-22T06:37:35.756Z,1.40
2022-11-22T06:38:35.205Z,1.40
2022-11-22T06:39:35.341Z,1.50
2022-11-22T06:40:35.454Z,1.40
2022-11-22T06:41:36.365Z,1.50
2022-11-22T06:42:38.584Z,1.40
2022-11-22T06:43:35.886Z,1.50
2022-11-22T06:44:36.124Z,1.40
2022-11-22T06:45:36.043Z,1.40
2022-11-22T06:46:50.763Z,1.40
2022-11-22T06:47:43.253Z,1.20
2022-11-22T06:48:36.576Z,1.10
2022-11-22T06:49:38.238Z,1.40
2022-11-22T06:50:38.827Z,1.30
2022-11-22T06:51:36.897Z,1.40
2022-11-22T06:52:37.973Z,1.60
2022-11-22T06:53:47.277Z,1.30
2022-11-22T06:54:39.359Z,1.20
2022-11-22T06:55:59.769Z,1.30
2022-11-22T06:56:39.980Z,1.30
2022-11-22T06:57:42.335Z,1.20
2022-11-22T06:58:39.174Z,1.20
2022-11-22T06:59:39.111Z,1.40
2022-11-22T07:00:39.484Z,1.20
2022-11-22T07:01:39.387Z,1.30
2022-11-22T07:02:42.023Z,1.20
2022-11-22T07:03:38.705Z,1.10
2022-11-22T07:04:56.077Z,1.30
2022-11-22T07:05:40.900Z,1.20
2022-11-22T07:06:39.312Z,1.40
2022-11-22T07:07:39.262Z,1.30
2022-11-22T07:08:40.270Z,1.20
2022-11-22T07:09:39.469Z,1.40
2022-11-22T07:10:39.579Z,1.40
2022-11-22T07:11:39.772Z,1.20
2022-11-22T07:12:40.629Z,1.40
2022-11-22T07:13:41.054Z,1.40
2022-11-22T07:14:40.408Z,1.30
2022-11-22T07:15:40.360Z,1.40
2022-11-22T07:16:40.482Z,1.20
2022-11-22T07:17:42.508Z,1.40
2022-11-22T07:18:41.626Z,1.20
2022-11-22T07:19:41.006Z,1.20
2022-11-22T07:20:41.647Z,1.30
2022-11-22T07:21:41.996Z,1.40
2022-11-22T07:22:41.966Z,1.40
2022-11-22T07:23:42.737Z,1.20
2022-11-22T07:24:42.293Z,1.10
2022-11-22T07:25:42.671Z,1.20
2022-11-22T07:26:42.665Z,1.60
2022-11-22T07:27:42.883Z,1.40
2022-11-22T07:28:42.113Z,1.50
2022-11-22T07:29:43.107Z,1.50
2022-11-22T07:30:44.248Z,1.30
2022-11-22T07:31:42.625Z,1.50
2022-11-22T07:32:45.879Z,1.50
2022-11-22T07:33:43.360Z,1.30
2022-11-22T07:34:42.933Z,1.50
2022-11-22T07:35:44.046Z,1.20
2022-11-22T07:36:43.193Z,1.60
2022-11-22T07:37:43.304Z,1.70
2022-11-22T07:38:43.426Z,1.50
2022-11-22T07:39:44.219Z,1.60
2022-11-22T07:40:43.708Z,1.40
2022-11-22T07:41:43.844Z,1.50
2022-11-22T07:42:44.013Z,1.60
2022-11-22T07:43:44.154Z,1.40
2022-11-22T07:44:44.313Z,1.60
2022-11-22T07:45:45.153Z,1.50
2022-11-22T07:46:45.493Z,1.40
2022-11-22T07:47:44.834Z,1.40
2022-11-22T07:48:45.622Z,1.40
2022-11-22T07:49:45.924Z,1.40
2022-11-22T07:50:45.338Z,1.50
2022-11-22T07:51:45.435Z,1.60
2022-11-22T07:52:46.259Z,1.50
2022-11-22T07:53:45.612Z,1.30
2022-11-22T07:54:45.724Z,1.20
2022-11-22T07:55:46.110Z,1.30
2022-11-22T07:56:46.171Z,1.30
2022-11-22T07:57:46.681Z,1.30
2022-11-22T07:58:46.260Z,1.70
2022-11-22T07:59:46.361Z,1.50
2022-11-22T08:00:46.411Z,1.30
2022-11-22T08:01:46.673Z,1.30
2022-11-22T08:02:46.840Z,1.40
2022-11-22T08:03:46.856Z,1.30
2022-11-22T08:04:46.934Z,1.30
2022-11-22T08:05:48.112Z,1.40
2022-11-22T08:06:47.202Z,1.40
2022-11-22T08:07:48.119Z,1.20
2022-11-22T08:08:47.603Z,1.40
2022-11-22T08:09:47.681Z,1.10
2022-11-22T08:10:48.374Z,1.20
2022-11-22T08:11:47.838Z,1.50
2022-11-22T08:12:49.120Z,1.50
2022-11-22T08:13:50.081Z,1.30
2022-11-22T08:14:51.023Z,1.40
2022-11-22T08:15:48.400Z,1.10
2022-11-22T08:16:48.514Z,1.20
2022-11-22T08:17:48.609Z,1.10
2022-11-22T08:18:50.716Z,1.30
2022-11-22T08:19:49.088Z,1.20
2022-11-22T08:20:49.335Z,1.30
2022-11-22T08:21:53.920Z,1.20
2022-11-22T08:22:51.319Z,1.20
2022-11-22T08:23:49.668Z,1.40
2022-11-22T08:24:49.679Z,1.20
2022-11-22T08:25:49.991Z,1.20
2022-11-22T08:26:50.011Z,1.50
2022-11-22T08:27:58.074Z,1.10
2022-11-22T08:28:50.626Z,1.20
2022-11-22T08:29:51.935Z,1.10
2022-11-22T08:30:51.208Z,1.20
2022-11-22T08:31:51.642Z,1.40
2022-11-22T08:32:52.164Z,1.20
2022-11-22T08:33:54.982Z,1.20
2022-11-22T08:34:51.610Z,1.30
2022-11-22T08:35:51.996Z,1.20
2022-11-22T08:37:13.157Z,1.20
2022-11-22T08:39:48.846Z,1.40
2022-11-22T08:41:29.373Z,1.10
2022-11-22T08:42:28.783Z,1.30
2022-11-22T08:43:31.664Z,1.20
2022-11-22T08:44:31.662Z,1.30
2022-11-22T08:45:29.254Z,1.40
2022-11-22T08:46:29.591Z,1.20
2022-11-22T08:47:30.280Z,1.30
2022-11-22T08:48:33.356Z,1.40
2022-11-22T08:49:32.534Z,1.30
2022-11-22T08:50:30.786Z,1.10
2022-11-22T08:51:30.262Z,1.30
2022-11-22T08:52:32.035Z,1.20
2022-11-22T08:53:51.922Z,1.30
2022-11-22T08:54:34.952Z,1.20
2022-11-22T08:55:32.052Z,1.20
2022-11-22T08:56:32.272Z,1.20
2022-11-22T08:57:45.960Z,1.00
2022-11-22T08:58:32.831Z,1.40
2022-11-22T08:59:31.438Z,1.10
2022-11-22T09:00:33.644Z,1.50
2022-11-22T09:01:32.254Z,1.30
2022-11-22T09:02:32.108Z,1.30
2022-11-22T09:03:32.614Z,1.30
2022-11-22T09:04:32.225Z,1.50
2022-11-22T09:05:32.578Z,1.20
2022-11-22T09:08:36.257Z,1.20
2022-11-22T09:09:39.725Z,1.10
2022-11-22T09:10:34.430Z,1.30
2022-11-22T09:11:32.954Z,1.20
2022-11-22T09:12:33.015Z,1.30
2022-11-22T09:13:34.836Z,1.50
2022-11-22T09:14:37.600Z,1.20
2022-11-22T09:15:33.534Z,1.10
2022-11-22T09:16:33.600Z,1.40
2022-11-22T09:17:35.184Z,1.20
2022-11-22T09:18:33.699Z,1.20
2022-11-22T09:19:33.946Z,1.30
2022-11-22T09:20:34.006Z,1.00
2022-11-22T09:21:34.100Z,1.40
2022-11-22T09:22:34.405Z,1.10
2022-11-22T09:23:34.403Z,1.30
2022-11-22T09:24:35.105Z,1.20
2022-11-22T09:25:35.021Z,1.20
2022-11-22T09:26:34.756Z,1.10
2022-11-22T09:27:35.851Z,1.30
2022-11-22T09:28:36.767Z,1.10
2022-11-22T09:29:35.267Z,1.30
2022-11-22T09:30:36.271Z,1.10
2022-11-22T09:31:35.415Z,1.10
2022-11-22T09:32:39.660Z,1.30
2022-11-22T09:33:36.093Z,1.30
2022-11-22T09:34:39.086Z,1.20
2022-11-22T09:35:37.679Z,1.30
2022-11-22T09:36:36.072Z,1.20
2022-11-22T09:37:37.725Z,1.10
2022-11-22T09:38:36.290Z,1.10
2022-11-22T09:39:36.747Z,1.10
2022-11-22T09:40:36.740Z,1.10
2022-11-22T09:41:37.334Z,1.40
2022-11-22T09:42:37.069Z,1.20
2022-11-22T09:43:37.399Z,1.20
2022-11-22T09:44:38.280Z,1.30
2022-11-22T09:45:37.151Z,1.30
2022-11-22T09:46:37.634Z,1.10
2022-11-22T09:47:37.625Z,1.20
2022-11-22T09:48:37.726Z,1.10
2022-11-22T09:50:02.532Z,1.10
2022-11-22T09:50:52.156Z,1.20
2022-11-22T09:51:45.593Z,1.20
2022-11-22T09:52:38.773Z,1.30
2022-11-22T09:53:38.761Z,1.30
2022-11-22T09:54:38.527Z,1.10
2022-11-22T09:55:42.582Z,1.00
2022-11-22T09:56:47.334Z,1.30
2022-11-22T09:57:46.443Z,1.10
2022-11-22T09:58:40.178Z,1.30
2022-11-22T09:59:39.335Z,1.20
2022-11-22T10:00:39.897Z,1.20
2022-11-22T10:01:39.632Z,1.10
2022-11-22T10:02:58.902Z,1.20
2022-11-22T10:13:28.415Z,1.10
2022-11-22T10:14:29.914Z,1.10
2022-11-22T10:15:29.670Z,1.40
2022-11-22T10:16:28.652Z,1.10
2022-11-22T10:17:29.661Z,1.10
2022-11-22T10:18:35.680Z,1.10
2022-11-22T10:19:30.757Z,1.30
2022-11-22T10:20:30.042Z,1.20
2022-11-22T10:21:36.284Z,1.00
2022-11-22T10:22:30.146Z,1.00
2022-11-22T10:23:31.015Z,1.40
2022-11-22T10:24:30.608Z,1.20
2022-11-22T10:25:29.811Z,1.20
2022-11-22T10:26:37.040Z,1.20
2022-11-22T10:27:39.751Z,1.10
2022-11-22T10:28:31.931Z,1.20
2022-11-22T10:29:32.332Z,1.10
2022-11-22T10:30:41.249Z,1.30
2022-11-22T10:31:35.213Z,1.30
2022-11-22T10:33:00.147Z,1.30
2022-11-22T10:33:44.205Z,1.20
2022-11-22T10:34:39.905Z,1.30
2022-11-22T10:35:31.996Z,1.00
2022-11-22T10:36:34.629Z,1.10
2022-11-22T10:37:53.577Z,1.20
2022-11-22T10:38:40.568Z,1.30
2022-11-22T10:39:36.484Z,1.30
2022-11-22T10:40:32.478Z,1.30
2022-11-22T10:41:31.931Z,1.10
2022-11-22T10:42:36.503Z,1.30
2022-11-22T10:43:33.179Z,1.20
2022-11-22T10:44:32.736Z,1.50
2022-11-22T10:45:33.985Z,1.20
2022-11-22T10:46:35.904Z,1.20
2022-11-22T10:47:39.675Z,1.20
2022-11-22T10:48:33.367Z,1.30
2022-11-22T10:49:33.355Z,1.20
2022-11-22T10:50:33.952Z,1.20
2022-11-22T10:51:33.971Z,1.10
2022-11-22T10:52:34.097Z,1.00
2022-11-22T10:53:33.527Z,1.00
2022-11-22T10:54:33.611Z,1.00
2022-11-22T10:55:33.799Z,1.10
2022-11-22T10:56:33.852Z,1.30
2022-11-22T10:57:34.976Z,1.20
2022-11-22T10:58:34.080Z,1.10
2022-11-22T10:59:38.689Z,1.10
2022-11-22T11:00:41.810Z,1.30
2022-11-22T11:01:35.456Z,1.20
2022-11-22T11:02:35.443Z,1.20
2022-11-22T11:03:34.664Z,1.30
2022-11-22T11:04:36.033Z,1.00
2022-11-22T11:05:37.416Z,0.90
2022-11-22T11:06:57.129Z,1.00
2022-11-22T11:07:36.372Z,1.30
2022-11-22T11:08:57.481Z,1.00
2022-11-22T11:10:36.774Z,1.10
2022-11-22T11:11:35.772Z,1.10
2022-11-22T11:12:38.518Z,1.00
2022-11-22T11:13:37.902Z,1.10
2022-11-22T11:14:36.236Z,1.00
2022-11-22T11:15:37.149Z,0.90
2022-11-22T11:16:36.492Z,1.20
2022-11-22T11:17:36.694Z,1.40
2022-11-22T11:18:37.535Z,1.20
2022-11-22T11:19:39.864Z,1.10
2022-11-22T11:20:37.055Z,1.10
2022-11-22T11:21:37.112Z,1.10
2022-11-22T11:23:12.682Z,1.10
2022-11-22T11:23:39.390Z,1.10
2022-11-22T11:24:39.496Z,1.10
2022-11-22T11:25:37.660Z,1.20
2022-11-22T11:26:37.761Z,1.20
2022-11-22T11:27:37.941Z,1.20
2022-11-22T11:28:40.180Z,1.00
2022-11-22T11:29:39.490Z,1.00
2022-11-22T11:30:38.428Z,1.20
2022-11-22T11:31:39.961Z,1.10
2022-11-22T11:32:39.144Z,1.00
2022-11-22T11:33:44.389Z,1.20
2022-11-22T11:34:38.965Z,1.10
2022-11-22T11:35:40.063Z,1.10
2022-11-22T11:36:39.184Z,1.20
2022-11-22T11:37:39.302Z,1.00
2022-11-22T11:39:01.546Z,1.10
2022-11-22T11:39:44.589Z,1.10
2022-11-22T11:40:40.766Z,1.20
2022-11-22T11:41:43.562Z,1.10
2022-11-22T11:42:39.908Z,0.90
2022-11-22T11:43:40.764Z,1.00
2022-11-22T11:44:40.976Z,1.00
2022-11-22T11:45:40.228Z,1.10
2022-11-22T11:46:41.530Z,0.90
2022-11-22T11:47:40.760Z,1.10
2022-11-22T11:48:40.630Z,1.20
2022-11-22T11:49:45.717Z,1.20
2022-11-22T11:50:40.818Z,1.30
2022-11-22T11:51:41.936Z,1.10
2022-11-22T11:52:41.188Z,1.10
2022-11-22T11:53:41.366Z,1.20
2022-11-22T11:54:41.448Z,1.10
2022-11-22T11:55:42.624Z,1.10
2022-11-22T11:56:41.696Z,1.00
2022-11-22T11:57:41.925Z,1.30
2022-11-22T11:58:42.912Z,1.10
2022-11-22T11:59:43.072Z,1.00
2022-11-22T12:00:43.192Z,1.20
2022-11-22T12:01:42.679Z,1.00
2022-11-22T12:02:42.553Z,1.10
2022-11-22T12:03:42.635Z,1.00
2022-11-22T12:04:43.090Z,0.90
2022-11-22T12:05:42.857Z,1.10
2022-11-22T12:06:43.025Z,1.00
2022-11-22T12:07:43.236Z,1.00
2022-11-22T12:08:44.419Z,0.90
2022-11-22T12:09:44.126Z,1.10
2022-11-22T12:10:43.494Z,1.10
2022-11-22T12:11:44.438Z,1.00
2022-11-22T12:12:43.874Z,1.10
2022-11-22T12:14:12.359Z,1.30
2022-11-22T12:15:09.721Z,1.20
2022-11-22T12:15:48.704Z,0.80
2022-11-22T12:17:17.268Z,1.20
2022-11-22T12:17:46.862Z,1.20
2022-11-22T12:18:54.025Z,1.00
2022-11-22T12:20:17.991Z,1.10
2022-11-22T12:21:03.479Z,1.10
2022-11-22T12:21:48.162Z,1.10
2022-11-22T12:23:50.922Z,1.00
2022-11-22T12:25:16.610Z,1.10
2022-11-22T12:25:47.525Z,1.00
2022-11-22T12:27:00.238Z,1.00
2022-11-22T12:27:47.034Z,1.10
2022-11-22T12:28:57.175Z,1.00
2022-11-22T12:29:58.177Z,1.10
2022-11-22T12:30:51.633Z,0.90
2022-11-22T12:31:48.400Z,1.00
2022-11-22T12:32:53.421Z,1.10
2022-11-22T12:33:51.256Z,1.10
2022-11-22T12:34:49.510Z,1.00
2022-11-22T12:35:53.668Z,1.10
2022-11-22T12:36:47.927Z,0.90
2022-11-22T12:37:50.331Z,1.00
2022-11-22T12:38:55.592Z,0.90
2022-11-22T12:39:49.256Z,1.00
2022-11-22T12:40:55.586Z,1.00
2022-11-22T12:42:00.163Z,1.20
2022-11-22T12:42:47.883Z,0.90
2022-11-22T12:43:48.808Z,0.90
2022-11-22T12:44:51.830Z,1.00
2022-11-22T12:45:48.383Z,1.10
2022-11-22T12:46:56.034Z,1.00
2022-11-22T12:47:49.260Z,1.10
2022-11-22T12:48:23.630Z,1.10
2022-11-22T12:48:52.065Z,1.00
2022-11-22T12:49:49.474Z,1.00
2022-11-22T12:50:53.405Z,1.00
2022-11-22T12:51:49.182Z,1.00
2022-11-22T12:52:49.362Z,1.10
2022-11-22T12:53:49.501Z,1.30
2022-11-22T12:54:49.562Z,1.00
2022-11-22T12:55:50.418Z,0.90
2022-11-22T12:56:51.699Z,1.00
2022-11-22T12:57:49.897Z,1.00
2022-11-22T12:58:50.377Z,0.90
2022-11-22T12:59:50.554Z,1.00
2022-11-22T13:00:50.462Z,0.90
2022-11-22T13:01:50.984Z,1.00
2022-11-22T13:02:55.910Z,1.00
2022-11-22T13:03:52.077Z,1.10
2022-11-22T13:04:51.976Z,1.00
2022-11-22T13:05:51.129Z,1.00
2022-11-22T13:06:52.011Z,1.00
2022-11-22T13:07:51.342Z,1.00
2022-11-22T13:08:55.601Z,0.90
2022-11-22T13:09:52.747Z,0.90
2022-11-22T13:10:52.196Z,1.00
2022-11-22T13:11:51.939Z,1.00
2022-11-22T13:12:52.169Z,1.00
2022-11-22T13:13:52.575Z,0.90
2022-11-22T13:14:52.553Z,0.90
2022-11-22T13:15:53.986Z,0.90
2022-11-22T13:16:56.195Z,0.90
2022-11-22T13:17:53.718Z,1.00
2022-11-22T13:19:00.706Z,1.10
2022-11-22T13:19:55.325Z,1.10
2022-11-22T13:20:55.008Z,0.90
2022-11-22T13:21:54.338Z,0.90
2022-11-22T13:22:53.761Z,1.00
2022-11-22T13:23:53.662Z,0.80
2022-11-22T13:24:53.689Z,1.00
2022-11-22T13:25:54.007Z,1.00
2022-11-22T13:26:54.066Z,1.10
2022-11-22T13:27:54.303Z,1.10
2022-11-22T13:28:54.160Z,1.00
2022-11-22T13:29:54.278Z,1.00
2022-11-22T13:30:54.462Z,0.90
2022-11-22T13:31:54.623Z,1.00
2022-11-22T13:32:55.614Z,0.90
2022-11-22T13:33:55.246Z,1.10
2022-11-22T13:34:55.006Z,0.90
2022-11-22T13:35:55.174Z,1.00
2022-11-22T13:37:01.686Z,0.90
2022-11-22T13:37:57.351Z,1.00
2022-11-22T13:38:55.669Z,1.10
2022-11-22T13:39:56.652Z,0.90
2022-11-22T13:40:55.815Z,0.90
2022-11-22T13:41:57.302Z,0.80
2022-11-22T13:42:57.040Z,1.00
2022-11-22T13:43:57.161Z,1.10
2022-11-22T13:44:57.308Z,1.00
2022-11-22T13:45:56.640Z,0.90
2022-11-22T13:46:56.712Z,1.00
2022-11-22T13:47:56.922Z,0.90
2022-11-22T13:48:58.327Z,1.00
2022-11-22T13:49:57.923Z,1.10
2022-11-22T13:50:58.045Z,0.90
2022-11-22T13:51:57.241Z,0.90
2022-11-22T13:52:57.324Z,0.90
2022-11-22T13:53:57.452Z,1.10
2022-11-22T13:54:57.673Z,1.10
2022-11-22T13:55:57.695Z,1.00
2022-11-22T13:56:57.850Z,0.90
2022-11-22T13:57:59.968Z,1.10
2022-11-22T13:58:59.112Z,0.90
2022-11-22T13:59:59.154Z,0.80
2022-11-22T14:01:00.498Z,0.90
2022-11-22T14:02:00.491Z,0.90
2022-11-22T14:03:03.153Z,1.20
2022-11-22T14:03:58.867Z,0.80
2022-11-22T14:04:59.083Z,0.90
2022-11-22T14:05:59.975Z,1.00
2022-11-22T14:06:59.432Z,1.00
2022-11-22T14:07:59.461Z,0.90
2022-11-22T14:08:59.467Z,0.90
2022-11-22T14:10:00.641Z,1.00
2022-11-22T14:11:03.666Z,0.80
2022-11-22T14:12:00.942Z,1.10
2022-11-22T14:13:01.031Z,1.00
2022-11-22T14:14:00.206Z,1.10
2022-11-22T14:15:00.661Z,1.00
2022-11-22T14:16:02.230Z,0.90
2022-11-22T14:17:01.394Z,0.80
2022-11-22T14:18:00.862Z,1.00
2022-11-22T14:19:00.869Z,0.90
2022-11-22T14:20:01.840Z,1.10
2022-11-22T14:21:01.926Z,0.90
2022-11-22T14:22:01.389Z,1.00
2022-11-22T14:23:01.428Z,1.10
2022-11-22T14:24:03.567Z,1.00
2022-11-22T14:25:01.689Z,1.10
2022-11-22T14:26:01.815Z,0.90
2022-11-22T14:27:02.086Z,0.90
2022-11-22T14:28:05.867Z,1.00
2022-11-22T14:29:02.416Z,1.20
2022-11-22T14:30:03.368Z,1.00
2022-11-22T14:31:02.495Z,1.20
2022-11-22T14:32:03.506Z,1.00
2022-11-22T14:33:03.407Z,1.00
2022-11-22T14:34:03.911Z,1.20
2022-11-22T14:35:03.983Z,1.00
2022-11-22T14:36:03.897Z,0.90
2022-11-22T14:37:03.244Z,1.20
2022-11-22T14:38:04.344Z,1.00
2022-11-22T14:39:05.684Z,1.00
2022-11-22T14:40:03.708Z,1.00
2022-11-22T14:41:04.769Z,1.20
2022-11-22T14:42:10.171Z,1.00
2022-11-22T14:43:04.757Z,1.10
2022-11-22T14:44:04.345Z,1.00
2022-11-22T14:45:10.145Z,1.00
2022-11-22T14:46:19.540Z,1.10
2022-11-22T14:47:07.192Z,1.00
2022-11-22T14:48:05.384Z,1.20
2022-11-22T14:49:05.171Z,1.00
2022-11-22T14:50:05.228Z,1.20
2022-11-22T14:51:05.829Z,1.10
2022-11-22T14:52:05.375Z,1.20
2022-11-22T14:53:07.139Z,1.00
2022-11-22T14:54:06.290Z,1.00
2022-11-22T14:55:05.867Z,0.80
2022-11-22T14:56:06.575Z,1.00
2022-11-22T14:57:06.851Z,1.00
2022-11-22T14:58:06.895Z,1.00
2022-11-22T14:59:06.182Z,1.00
2022-11-22T15:00:06.384Z,1.10
2022-11-22T15:01:06.613Z,1.10
2022-11-22T15:02:06.725Z,1.00
2022-11-22T15:03:06.767Z,1.10
2022-11-22T15:09:11.958Z,1.00
2022-11-22T15:09:11.960Z,0.90
2022-11-22T15:09:15.079Z,0.90
2022-11-22T15:09:15.572Z,0.90
2022-11-22T15:09:19.643Z,1.10
2022-11-22T15:09:33.392Z,1.10
2022-11-22T15:10:09.638Z,1.00
2022-11-22T15:11:07.892Z,0.90
2022-11-22T15:12:07.971Z,0.80
2022-11-22T15:13:08.081Z,1.00
2022-11-22T15:14:08.180Z,0.80
2022-11-22T15:57:16.474Z,1.10
2022-11-22T15:58:14.304Z,1.20
2022-11-22T15:59:14.504Z,0.90
2022-11-22T16:00:14.611Z,0.80
2022-11-22T16:01:19.842Z,0.90
2022-11-22T16:12:43.421Z,0.90
2022-11-22T16:13:43.512Z,0.90
2022-11-22T16:14:43.722Z,1.00
2022-11-22T16:15:43.888Z,1.00
2022-11-22T16:16:43.934Z,1.20
2022-11-22T16:17:44.110Z,1.00
2022-11-22T16:18:44.192Z,0.90
2022-11-22T16:19:44.388Z,1.00
2022-11-22T16:20:44.469Z,0.90
2022-11-22T16:21:44.601Z,0.80
2022-11-22T16:22:44.750Z,0.90
2022-11-22T16:23:44.902Z,1.00
2022-11-22T16:24:45.052Z,1.20
2022-11-22T16:25:45.199Z,1.00
2022-11-22T16:26:45.337Z,1.10
2022-11-22T16:27:45.474Z,1.10
2022-11-22T16:28:45.812Z,1.00
2022-11-22T16:29:46.737Z,0.90
2022-11-22T16:30:45.951Z,1.00
2022-11-22T16:31:46.027Z,1.10
2022-11-22T16:32:46.172Z,1.10
2022-11-22T16:33:46.322Z,1.10
2022-11-22T16:34:47.026Z,1.00
2022-11-22T16:35:46.917Z,0.90
2022-11-22T16:36:46.789Z,1.10
2022-11-22T16:37:48.315Z,1.30
2022-11-22T16:38:47.052Z,1.10
2022-11-22T16:39:47.197Z,1.10
2022-11-22T16:40:47.356Z,0.90
2022-11-22T16:41:47.488Z,1.10
2022-11-22T16:42:47.631Z,0.90
2022-11-22T16:43:48.704Z,1.10
2022-11-22T16:44:47.932Z,0.90
2022-11-22T16:45:49.058Z,1.10
2022-11-22T16:46:48.195Z,1.00
2022-11-22T16:47:58.484Z,1.00
2022-11-22T16:48:49.406Z,1.00
2022-11-22T16:49:48.524Z,1.20
2022-11-22T16:50:48.736Z,1.50
2022-11-22T16:51:48.858Z,1.00
2022-11-22T16:52:48.952Z,1.00
2022-11-22T16:53:49.092Z,1.00
2022-11-22T16:54:49.225Z,1.00
2022-11-22T16:55:49.375Z,0.80
2022-11-22T16:56:49.478Z,1.00
2022-11-22T16:57:49.617Z,1.10
2022-11-22T16:58:49.769Z,1.00
2022-11-22T16:59:49.961Z,1.00
2022-11-22T17:00:50.092Z,1.10
2022-11-22T17:01:50.216Z,1.10
2022-11-22T17:02:50.252Z,0.90
2022-11-22T17:03:50.387Z,1.00
2022-11-22T17:04:50.515Z,0.90
2022-11-22T17:05:50.672Z,1.00
2022-11-22T17:06:50.832Z,1.10
2022-11-22T17:07:50.963Z,1.10
2022-11-22T17:08:51.035Z,1.00
2022-11-22T17:09:51.172Z,1.00
2022-11-22T17:10:51.333Z,1.00
2022-11-22T17:11:51.413Z,1.30
2022-11-22T17:12:51.562Z,0.90
2022-11-22T17:13:51.705Z,0.90
2022-11-22T17:14:51.831Z,0.90
2022-11-22T17:15:51.962Z,1.00
2022-11-22T17:16:52.119Z,1.30
2022-11-22T17:17:52.230Z,1.00
2022-11-22T17:18:52.385Z,1.00
2022-11-22T17:19:55.773Z,1.10
2022-11-22T17:20:52.681Z,1.00
2022-11-22T17:21:52.773Z,1.20
2022-11-22T17:22:52.898Z,1.00
2022-11-22T17:23:53.056Z,1.20
2022-11-22T17:24:53.209Z,0.90
2022-11-22T17:25:53.361Z,1.10
2022-11-22T17:26:53.513Z,1.10
2022-11-22T17:27:54.380Z,0.90
2022-11-22T17:28:53.777Z,1.00
2022-11-22T17:29:53.987Z,1.00
2022-11-22T17:30:54.050Z,1.10
2022-11-22T17:31:54.217Z,1.00
2022-11-22T17:32:54.297Z,1.00
2022-11-22T17:33:54.425Z,0.90
2022-11-22T17:34:54.592Z,1.00
2022-11-22T17:35:54.678Z,0.90
2022-11-22T17:36:54.798Z,1.20
2022-11-22T17:37:54.967Z,1.20
2022-11-22T17:38:55.075Z,0.90
2022-11-22T17:39:55.241Z,0.90
2022-11-22T17:40:55.350Z,1.00
2022-11-22T17:41:55.488Z,1.00
2022-11-22T17:42:55.609Z,0.90
2022-11-22T17:43:55.794Z,0.90
2022-11-22T17:44:55.900Z,0.90
2022-11-22T17:45:55.997Z,1.10
2022-11-22T17:46:56.136Z,1.00
2022-11-22T17:47:56.265Z,1.20
2022-11-22T17:48:56.435Z,1.50
2022-11-22T17:49:56.506Z,1.20
2022-11-22T17:50:56.664Z,1.50
2022-11-22T17:51:56.796Z,1.40
2022-11-22T17:52:56.953Z,1.80
2022-11-22T17:53:57.101Z,1.60
2022-11-22T17:55:02.003Z,2.00
2022-11-22T17:56:13.701Z,1.70
2022-11-22T17:56:58.495Z,1.50
2022-11-22T17:57:57.662Z,1.50
2022-11-22T17:58:57.828Z,1.60
2022-11-22T17:59:57.965Z,1.70
2022-11-22T18:00:58.125Z,1.40
2022-11-22T18:01:59.205Z,1.40
2022-11-22T18:03:01.346Z,1.40
2022-11-22T18:03:59.534Z,1.50
2022-11-22T18:04:58.659Z,1.50
2022-11-22T18:05:58.785Z,1.40
2022-11-22T18:06:58.947Z,1.50
2022-11-22T18:07:59.128Z,1.30
2022-11-22T18:08:59.235Z,1.50
2022-11-22T18:09:59.322Z,1.40
2022-11-22T18:10:59.489Z,1.30
2022-11-22T18:12:00.586Z,1.40
2022-11-22T18:13:20.281Z,1.40
2022-11-22T18:14:00.935Z,1.60
2022-11-22T18:15:00.067Z,1.50
2022-11-22T18:16:03.476Z,1.50
2022-11-22T18:17:00.337Z,1.40
2022-11-22T18:18:00.461Z,1.40
2022-11-22T18:19:00.668Z,1.40
2022-11-22T18:20:01.660Z,1.40
2022-11-22T18:21:00.898Z,1.50
2022-11-22T18:22:01.032Z,1.30
2022-11-22T18:23:02.144Z,1.40
2022-11-22T18:24:01.335Z,1.60
2022-11-22T18:25:01.482Z,1.50
2022-11-22T18:26:37.655Z,1.50
2022-11-22T18:27:02.783Z,1.30